createdAt,value
2018-10-16T00:00:04.215Z,88.24
2018-10-16T00:01:04.201Z,87.66
2018-10-16T00:02:04.199Z,88.09
2018-10-16T00:03:04.226Z,87.86
2018-10-16T00:04:04.187Z,87.86
2018-10-16T00:05:04.186Z,87.95
2018-10-16T00:06:04.181Z,88.00
2018-10-16T00:07:04.171Z,88.00
2018-10-16T00:08:04.167Z,88.48
2018-10-16T00:09:04.166Z,88.34
2018-10-16T00:10:04.160Z,87.66
2018-10-16T00:11:04.157Z,88.43
2018-10-16T00:12:04.158Z,88.34
2018-10-16T00:13:04.140Z,88.05
2018-10-16T00:14:04.136Z,88.34
2018-10-16T00:15:04.131Z,87.95
2018-10-16T00:16:04.125Z,88.15
2018-10-16T00:17:04.123Z,87.95
2018-10-16T00:18:04.119Z,87.86
2018-10-16T00:19:04.115Z,88.34
2018-10-16T00:20:04.112Z,88.81
2018-10-16T00:21:04.098Z,89.01
2018-10-16T00:22:04.097Z,88.81
2018-10-16T00:23:04.096Z,88.72
2018-10-16T00:24:04.089Z,88.34
2018-10-16T00:25:04.079Z,88.43
2018-10-16T00:26:04.123Z,88.34
2018-10-16T00:27:04.068Z,88.53
2018-10-16T00:28:04.062Z,89.01
2018-10-16T00:29:04.063Z,88.81
2018-10-16T00:30:04.057Z,88.81
2018-10-16T00:31:04.056Z,88.72
2018-10-16T00:32:04.047Z,89.29
2018-10-16T00:33:04.037Z,88.72
2018-10-16T00:34:04.031Z,88.72
2018-10-16T00:35:04.030Z,89.01
2018-10-16T00:36:04.021Z,89.01
2018-10-16T00:37:04.029Z,89.01
2018-10-16T00:38:04.015Z,89.29
2018-10-16T00:39:04.006Z,89.48
2018-10-16T00:40:03.999Z,89.29
2018-10-16T00:41:04.000Z,89.29
2018-10-16T00:42:03.995Z,89.20
2018-10-16T00:43:03.988Z,89.39
2018-10-16T00:44:03.982Z,88.96
2018-10-16T00:45:03.973Z,89.10
2018-10-16T00:46:03.969Z,89.44
2018-10-16T00:47:03.967Z,89.29
2018-10-16T00:48:03.960Z,89.77
2018-10-16T00:49:03.957Z,89.15
2018-10-16T00:50:03.950Z,89.73
2018-10-16T00:51:03.947Z,89.92
2018-10-16T00:52:03.940Z,89.53
2018-10-16T00:53:03.931Z,89.58
2018-10-16T00:54:03.929Z,89.34
2018-10-16T00:55:04.091Z,89.15
2018-10-16T00:56:03.919Z,88.96
2018-10-16T00:57:03.908Z,89.06
2018-10-16T00:58:03.904Z,89.25
2018-10-16T00:59:03.899Z,89.06
2018-10-16T01:00:03.892Z,89.01
2018-10-16T01:01:03.894Z,89.10
2018-10-16T01:02:03.892Z,89.15
2018-10-16T01:03:03.881Z,89.15
2018-10-16T01:04:03.875Z,88.96
2018-10-16T01:05:03.867Z,89.06
2018-10-16T01:06:03.859Z,88.96
2018-10-16T01:07:03.855Z,89.25
2018-10-16T01:08:03.849Z,89.34
2018-10-16T01:09:03.849Z,90.11
2018-10-16T01:10:03.842Z,89.92
2018-10-16T01:11:03.833Z,89.82
2018-10-16T01:12:03.832Z,89.53
2018-10-16T01:13:03.831Z,90.01
2018-10-16T01:14:03.822Z,90.30
2018-10-16T01:15:03.815Z,89.44
2018-10-16T01:16:03.812Z,90.11
2018-10-16T01:17:03.801Z,90.11
2018-10-16T01:18:03.796Z,90.11
2018-10-16T01:19:03.795Z,90.30
2018-10-16T01:20:03.786Z,90.11
2018-10-16T01:21:03.781Z,90.11
2018-10-16T01:22:03.777Z,90.39
2018-10-16T01:23:03.775Z,90.49
2018-10-16T01:24:03.765Z,89.92
2018-10-16T01:25:03.761Z,89.73
2018-10-16T01:26:03.751Z,90.01
2018-10-16T01:27:03.750Z,89.73
2018-10-16T01:28:03.762Z,90.01
2018-10-16T01:29:03.734Z,90.11
2018-10-16T01:30:03.727Z,90.11
2018-10-16T01:31:03.722Z,90.01
2018-10-16T01:32:03.716Z,90.11
2018-10-16T01:33:03.715Z,90.11
2018-10-16T01:34:03.710Z,90.01
2018-10-16T01:35:03.705Z,89.73
2018-10-16T01:36:03.698Z,89.73
2018-10-16T01:37:03.691Z,90.11
2018-10-16T01:38:03.695Z,89.53
2018-10-16T01:39:03.678Z,89.92
2018-10-16T01:40:03.674Z,89.82
2018-10-16T01:41:03.671Z,89.63
2018-10-16T01:42:03.666Z,89.53
2018-10-16T01:43:03.656Z,89.82
2018-10-16T01:44:03.650Z,89.63
2018-10-16T01:45:03.653Z,89.29
2018-10-16T01:46:03.645Z,89.34
2018-10-16T01:47:03.639Z,89.48
2018-10-16T01:48:03.634Z,89.34
2018-10-16T01:49:03.624Z,89.96
2018-10-16T01:50:03.618Z,89.82
2018-10-16T01:51:03.612Z,89.82
2018-10-16T01:52:03.606Z,89.82
2018-10-16T01:53:03.605Z,89.67
2018-10-16T01:54:03.604Z,89.77
2018-10-16T01:55:03.595Z,89.53
2018-10-16T01:56:03.590Z,89.77
2018-10-16T01:57:03.579Z,89.53
2018-10-16T01:58:03.574Z,89.82
2018-10-16T01:59:03.575Z,89.53
2018-10-16T02:00:03.568Z,89.34
2018-10-16T02:01:03.559Z,89.77
2018-10-16T02:02:03.553Z,89.53
2018-10-16T02:03:03.547Z,89.63
2018-10-16T02:04:03.543Z,89.92
2018-10-16T02:05:03.541Z,89.87
2018-10-16T02:06:03.536Z,89.77
2018-10-16T02:07:03.532Z,90.11
2018-10-16T02:08:03.526Z,90.34
2018-10-16T02:09:03.516Z,90.39
2018-10-16T02:10:03.511Z,90.30
2018-10-16T02:11:03.505Z,90.16
2018-10-16T02:12:03.500Z,90.20
2018-10-16T02:13:03.501Z,90.20
2018-10-16T02:14:03.494Z,89.63
2018-10-16T02:15:03.484Z,90.30
2018-10-16T02:16:03.477Z,90.30
2018-10-16T02:17:03.479Z,90.39
2018-10-16T02:18:03.472Z,90.59
2018-10-16T02:19:03.466Z,90.68
2018-10-16T02:20:03.460Z,90.49
2018-10-16T02:21:03.452Z,90.49
2018-10-16T02:22:03.446Z,90.68
2018-10-16T02:23:03.441Z,90.30
2018-10-16T02:24:03.437Z,90.68
2018-10-16T02:25:03.435Z,90.68
2018-10-16T02:26:03.431Z,90.68
2018-10-16T02:27:03.426Z,90.59
2018-10-16T02:28:03.417Z,90.88
2018-10-16T02:29:03.408Z,90.49
2018-10-16T02:30:03.405Z,90.63
2018-10-16T02:31:03.405Z,90.49
2018-10-16T02:32:03.395Z,90.59
2018-10-16T02:33:03.389Z,91.25
2018-10-16T02:34:03.382Z,90.78
2018-10-16T02:35:03.376Z,90.63
2018-10-16T02:36:03.370Z,90.49
2018-10-16T02:37:03.370Z,90.59
2018-10-16T02:38:03.364Z,90.11
2018-10-16T02:39:03.360Z,90.01
2018-10-16T02:40:03.353Z,89.63
2018-10-16T02:41:03.343Z,90.39
2018-10-16T02:42:03.337Z,89.82
2018-10-16T02:43:03.332Z,90.20
2018-10-16T02:44:03.326Z,90.11
2018-10-16T02:45:03.325Z,90.49
2018-10-16T02:46:03.320Z,90.59
2018-10-16T02:47:03.311Z,90.20
2018-10-16T02:48:03.304Z,90.59
2018-10-16T02:49:03.304Z,90.30
2018-10-16T02:50:03.300Z,90.78
2018-10-16T02:51:03.294Z,90.59
2018-10-16T02:52:03.289Z,91.06
2018-10-16T02:53:03.278Z,90.59
2018-10-16T02:54:03.272Z,91.06
2018-10-16T02:55:03.267Z,90.20
2018-10-16T02:56:03.262Z,90.49
2018-10-16T02:57:03.260Z,90.68
2018-10-16T02:58:03.256Z,90.88
2018-10-16T02:59:03.249Z,90.11
2018-10-16T03:00:03.243Z,90.11
2018-10-16T03:01:03.235Z,90.30
2018-10-16T03:02:03.228Z,90.01
2018-10-16T03:03:03.227Z,90.30
2018-10-16T03:04:03.221Z,89.73
2018-10-16T03:05:03.211Z,90.30
2018-10-16T03:06:03.208Z,90.30
2018-10-16T03:07:03.201Z,89.53
2018-10-16T03:08:03.196Z,90.39
2018-10-16T03:09:03.196Z,89.82
2018-10-16T03:10:03.191Z,90.20
2018-10-16T03:11:03.188Z,89.92
2018-10-16T03:12:03.178Z,90.01
2018-10-16T03:13:03.168Z,90.49
2018-10-16T03:14:03.163Z,90.01
2018-10-16T03:15:03.158Z,90.06
2018-10-16T03:16:03.152Z,90.39
2018-10-16T03:17:03.152Z,90.39
2018-10-16T03:18:03.150Z,90.88
2018-10-16T03:19:03.136Z,90.25
2018-10-16T03:20:03.134Z,90.20
2018-10-16T03:21:03.129Z,90.34
2018-10-16T03:22:03.123Z,90.16
2018-10-16T03:23:03.120Z,90.53
2018-10-16T03:24:03.112Z,90.92
2018-10-16T03:25:03.103Z,90.63
2018-10-16T03:26:03.100Z,90.63
2018-10-16T03:27:03.094Z,90.73
2018-10-16T03:28:03.089Z,90.73
2018-10-16T03:29:03.087Z,90.82
2018-10-16T03:30:03.088Z,90.63
2018-10-16T03:31:03.076Z,90.73
2018-10-16T03:32:03.071Z,90.34
2018-10-16T03:33:03.060Z,90.63
2018-10-16T03:34:03.056Z,90.82
2018-10-16T03:35:03.055Z,90.73
2018-10-16T03:36:03.049Z,90.73
2018-10-16T03:37:03.039Z,91.30
2018-10-16T03:38:03.034Z,90.92
2018-10-16T03:39:03.028Z,90.34
2018-10-16T03:40:03.022Z,89.58
2018-10-16T03:41:03.021Z,90.44
2018-10-16T03:42:03.017Z,90.25
2018-10-16T03:43:03.011Z,90.25
2018-10-16T03:44:03.006Z,90.25
2018-10-16T03:45:02.996Z,90.34
2018-10-16T03:46:02.994Z,90.44
2018-10-16T03:47:02.992Z,90.06
2018-10-16T03:48:02.981Z,90.25
2018-10-16T03:49:02.980Z,90.63
2018-10-16T03:50:02.975Z,90.53
2018-10-16T03:51:02.966Z,90.63
2018-10-16T03:52:02.959Z,91.11
2018-10-16T03:53:02.959Z,90.82
2018-10-16T03:54:02.954Z,90.82
2018-10-16T03:55:02.948Z,90.73
2018-10-16T03:56:02.942Z,90.73
2018-10-16T03:57:02.933Z,90.34
2018-10-16T03:58:02.933Z,90.63
2018-10-16T03:59:02.923Z,90.63
2018-10-16T04:00:02.917Z,90.25
2018-10-16T04:01:02.917Z,90.73
2018-10-16T04:02:02.912Z,90.73
2018-10-16T04:03:02.906Z,90.87
2018-10-16T04:04:02.905Z,90.73
2018-10-16T04:05:02.891Z,90.73
2018-10-16T04:06:02.886Z,90.25
2018-10-16T04:07:02.887Z,90.30
2018-10-16T04:08:02.880Z,90.20
2018-10-16T04:09:02.873Z,90.48
2018-10-16T04:10:02.866Z,90.20
2018-10-16T04:11:02.862Z,89.81
2018-10-16T04:12:02.854Z,90.20
2018-10-16T04:13:02.854Z,90.39
2018-10-16T04:14:02.942Z,90.77
2018-10-16T04:15:02.845Z,90.58
2018-10-16T04:16:02.839Z,90.77
2018-10-16T04:17:02.832Z,90.48
2018-10-16T04:18:02.828Z,90.30
2018-10-16T04:19:02.820Z,90.58
2018-10-16T04:20:02.814Z,90.48
2018-10-16T04:21:02.815Z,90.67
2018-10-16T04:22:02.811Z,90.87
2018-10-16T04:23:02.881Z,90.58
2018-10-16T04:24:02.794Z,90.67
2018-10-16T04:25:02.795Z,90.87
2018-10-16T04:26:02.793Z,90.87
2018-10-16T04:27:02.783Z,90.77
2018-10-16T04:28:02.778Z,90.30
2018-10-16T04:29:02.791Z,90.20
2018-10-16T04:30:02.764Z,89.62
2018-10-16T04:31:02.759Z,90.48
2018-10-16T04:32:02.753Z,89.72
2018-10-16T04:33:02.754Z,89.62
2018-10-16T04:34:02.749Z,90.39
2018-10-16T04:35:02.743Z,90.77
2018-10-16T04:36:02.738Z,90.67
2018-10-16T04:37:02.728Z,90.87
2018-10-16T04:38:02.723Z,90.96
2018-10-16T04:39:02.723Z,90.10
2018-10-16T04:40:02.718Z,89.81
2018-10-16T04:41:02.709Z,90.48
2018-10-16T04:42:02.703Z,90.58
2018-10-16T04:43:02.705Z,90.96
2018-10-16T04:44:02.693Z,90.58
2018-10-16T04:45:02.697Z,90.58
2018-10-16T04:46:02.691Z,90.58
2018-10-16T04:47:02.684Z,90.58
2018-10-16T04:48:02.679Z,90.87
2018-10-16T04:49:02.672Z,90.67
2018-10-16T04:50:02.665Z,90.20
2018-10-16T04:51:02.665Z,90.67
2018-10-16T04:52:02.653Z,90.48
2018-10-16T04:53:02.652Z,90.39
2018-10-16T04:54:02.650Z,90.01
2018-10-16T04:55:02.676Z,90.20
2018-10-16T04:56:02.633Z,90.39
2018-10-16T04:57:02.632Z,90.20
2018-10-16T04:58:02.628Z,90.58
2018-10-16T04:59:02.625Z,90.39
2018-10-16T05:00:02.618Z,90.96
2018-10-16T05:01:02.608Z,90.39
2018-10-16T05:02:02.605Z,90.67
2018-10-16T05:03:02.598Z,91.35
2018-10-16T05:04:02.653Z,91.16
2018-10-16T05:05:02.594Z,91.16
2018-10-16T05:06:02.590Z,91.06
2018-10-16T05:07:02.582Z,90.58
2018-10-16T05:08:02.577Z,91.16
2018-10-16T05:09:02.572Z,90.87
2018-10-16T05:10:02.563Z,91.35
2018-10-16T05:11:02.562Z,90.44
2018-10-16T05:12:02.557Z,90.77
2018-10-16T05:13:02.576Z,90.77
2018-10-16T05:14:02.543Z,91.06
2018-10-16T05:15:02.538Z,90.96
2018-10-16T05:16:02.536Z,91.73
2018-10-16T05:17:02.532Z,90.92
2018-10-16T05:18:02.531Z,91.30
2018-10-16T05:19:02.538Z,91.59
2018-10-16T05:20:02.515Z,91.25
2018-10-16T05:21:02.506Z,91.53
2018-10-16T05:22:02.504Z,91.35
2018-10-16T05:23:02.495Z,91.30
2018-10-16T05:24:02.495Z,91.30
2018-10-16T05:25:02.488Z,91.49
2018-10-16T05:26:02.485Z,91.39
2018-10-16T05:27:02.474Z,91.30
2018-10-16T05:28:02.469Z,91.97
2018-10-16T05:29:02.468Z,91.59
2018-10-16T05:30:02.462Z,91.59
2018-10-16T05:31:02.519Z,91.30
2018-10-16T05:32:02.456Z,91.78
2018-10-16T05:33:02.444Z,91.39
2018-10-16T05:34:02.437Z,91.39
2018-10-16T05:35:02.432Z,91.59
2018-10-16T05:36:02.425Z,92.16
2018-10-16T05:37:02.426Z,91.78
2018-10-16T05:38:02.419Z,91.39
2018-10-16T05:39:02.437Z,91.97
2018-10-16T05:40:02.410Z,91.88
2018-10-16T05:41:02.404Z,92.16
2018-10-16T05:42:02.396Z,92.16
2018-10-16T05:43:02.396Z,91.59
2018-10-16T05:44:02.389Z,91.88
2018-10-16T05:45:02.380Z,91.97
2018-10-16T05:46:02.375Z,92.07
2018-10-16T05:47:02.369Z,91.97
2018-10-16T05:48:02.363Z,92.07
2018-10-16T05:49:02.365Z,92.16
2018-10-16T05:50:02.358Z,91.97
2018-10-16T05:51:02.351Z,91.39
2018-10-16T05:52:02.346Z,91.88
2018-10-16T05:53:02.336Z,91.88
2018-10-16T05:54:02.331Z,91.20
2018-10-16T05:55:02.328Z,91.68
2018-10-16T05:56:02.321Z,91.78
2018-10-16T05:57:02.323Z,91.20
2018-10-16T05:58:02.316Z,91.49
2018-10-16T05:59:02.307Z,91.78
2018-10-16T06:00:02.301Z,91.97
2018-10-16T06:01:02.301Z,91.20
2018-10-16T06:02:02.295Z,91.68
2018-10-16T06:03:02.288Z,91.68
2018-10-16T06:04:02.282Z,91.59
2018-10-16T06:05:02.273Z,91.39
2018-10-16T06:06:02.268Z,91.78
2018-10-16T06:07:02.264Z,91.68
2018-10-16T06:08:02.258Z,91.20
2018-10-16T06:09:02.260Z,91.78
2018-10-16T06:10:02.253Z,91.78
2018-10-16T06:11:02.247Z,91.49
2018-10-16T06:12:02.260Z,91.20
2018-10-16T06:13:02.232Z,91.30
2018-10-16T06:14:02.234Z,91.73
2018-10-16T06:15:02.225Z,91.63
2018-10-16T06:16:02.288Z,91.59
2018-10-16T06:17:02.211Z,91.73
2018-10-16T06:18:02.205Z,91.53
2018-10-16T06:19:02.200Z,91.83
2018-10-16T06:20:02.194Z,91.83
2018-10-16T06:21:02.194Z,91.63
2018-10-16T06:22:02.188Z,92.02
2018-10-16T06:23:02.184Z,92.21
2018-10-16T06:24:02.178Z,91.44
2018-10-16T06:25:02.170Z,91.35
2018-10-16T06:26:02.163Z,91.73
2018-10-16T06:27:02.158Z,91.35
2018-10-16T06:28:02.157Z,91.44
2018-10-16T06:29:02.154Z,91.35
2018-10-16T06:30:02.212Z,91.35
2018-10-16T06:31:02.139Z,91.44
2018-10-16T06:32:02.132Z,91.73
2018-10-16T06:33:02.134Z,91.73
2018-10-16T06:34:02.129Z,91.35
2018-10-16T06:35:02.121Z,91.35
2018-10-16T06:36:02.115Z,91.35
2018-10-16T06:37:02.109Z,91.25
2018-10-16T06:38:02.101Z,91.35
2018-10-16T06:39:02.099Z,91.44
2018-10-16T06:40:02.091Z,91.25
2018-10-16T06:41:02.301Z,91.63
2018-10-16T06:42:02.088Z,91.63
2018-10-16T06:43:02.083Z,91.44
2018-10-16T06:44:02.146Z,91.53
2018-10-16T06:45:02.066Z,91.44
2018-10-16T06:46:02.064Z,91.35
2018-10-16T06:47:02.061Z,91.25
2018-10-16T06:48:02.250Z,90.96
2018-10-16T06:49:02.045Z,91.73
2018-10-16T06:50:02.046Z,91.53
2018-10-16T06:51:02.037Z,91.16
2018-10-16T06:52:02.032Z,91.73
2018-10-16T06:53:02.050Z,91.73
2018-10-16T06:54:02.026Z,90.91
2018-10-16T06:55:02.072Z,91.01
2018-10-16T06:56:02.016Z,90.53
2018-10-16T06:57:02.006Z,90.82
2018-10-16T06:58:02.002Z,90.24
2018-10-16T06:59:01.997Z,90.34
2018-10-16T07:00:02.083Z,90.34
2018-10-16T07:01:02.013Z,90.24
2018-10-16T07:02:01.986Z,90.29
2018-10-16T07:03:01.982Z,90.00
2018-10-16T07:04:01.972Z,89.62
2018-10-16T07:05:01.974Z,89.62
2018-10-16T07:06:01.968Z,89.14
2018-10-16T07:07:02.147Z,89.47
2018-10-16T07:08:01.959Z,88.51
2018-10-16T07:09:01.952Z,88.42
2018-10-16T07:10:01.944Z,88.08
2018-10-16T07:11:01.941Z,87.41
2018-10-16T07:12:01.936Z,87.60
2018-10-16T07:13:01.936Z,87.50
2018-10-16T07:14:01.935Z,87.02
2018-10-16T07:15:01.969Z,87.02
2018-10-16T07:16:01.923Z,86.64
2018-10-16T07:17:01.914Z,86.30
2018-10-16T07:18:01.911Z,85.92
2018-10-16T07:19:01.911Z,85.63
2018-10-16T07:20:01.906Z,85.44
2018-10-16T07:21:01.909Z,85.15
2018-10-16T07:22:01.896Z,84.81
2018-10-16T07:23:01.894Z,84.61
2018-10-16T07:24:01.949Z,84.61
2018-10-16T07:25:01.892Z,83.94
2018-10-16T07:26:01.885Z,83.70
2018-10-16T07:27:01.883Z,82.97
2018-10-16T07:28:01.877Z,82.05
2018-10-16T07:29:01.900Z,81.13
2018-10-16T07:30:01.947Z,79.82
2018-10-16T07:31:01.866Z,78.03
2018-10-16T07:32:01.858Z,76.38
2018-10-16T07:33:01.863Z,74.76
2018-10-16T07:34:01.859Z,71.70
2018-10-16T07:35:01.852Z,69.65
2018-10-16T07:36:01.867Z,68.01
2018-10-16T07:37:01.855Z,66.72
2018-10-16T07:38:02.046Z,64.47
2018-10-16T07:39:02.009Z,62.56
2018-10-16T07:40:01.850Z,60.17
2018-10-16T07:41:01.847Z,60.13
2018-10-16T07:42:01.844Z,58.41
2018-10-16T07:43:01.844Z,56.40
2018-10-16T07:44:01.844Z,55.55
2018-10-16T07:45:01.852Z,54.32
2018-10-16T07:46:01.851Z,53.08
2018-10-16T07:47:01.852Z,52.53
2018-10-16T07:48:01.853Z,51.67
2018-10-16T07:49:01.850Z,51.77
2018-10-16T07:50:01.852Z,50.43
2018-10-16T07:51:01.860Z,49.46
2018-10-16T07:52:01.860Z,48.68
2018-10-16T07:53:01.859Z,48.54
2018-10-16T07:54:01.864Z,48.49
2018-10-16T07:55:01.869Z,49.41
2018-10-16T07:56:01.870Z,50.29
2018-10-16T07:57:01.881Z,50.70
2018-10-16T07:58:01.879Z,50.36
2018-10-16T07:59:01.882Z,49.41
2018-10-16T08:00:01.886Z,49.17
2018-10-16T08:01:01.885Z,48.12
2018-10-16T08:02:01.891Z,47.00
2018-10-16T08:03:01.896Z,46.41
2018-10-16T08:04:01.897Z,44.87
2018-10-16T08:05:01.913Z,44.38
2018-10-16T08:06:01.909Z,43.90
2018-10-16T08:07:01.908Z,43.51
2018-10-16T08:08:01.913Z,43.51
2018-10-16T08:09:01.921Z,43.43
2018-10-16T08:10:01.926Z,43.51
2018-10-16T08:11:01.929Z,43.51
2018-10-16T08:12:01.937Z,43.14
2018-10-16T08:13:01.936Z,42.68
2018-10-16T08:14:01.944Z,42.19
2018-10-16T08:15:01.947Z,41.67
2018-10-16T08:16:01.951Z,41.67
2018-10-16T08:17:02.006Z,42.14
2018-10-16T08:18:01.968Z,42.34
2018-10-16T08:19:01.975Z,42.40
2018-10-16T08:20:01.982Z,42.91
2018-10-16T08:21:01.983Z,43.40
2018-10-16T08:22:01.990Z,43.95
2018-10-16T08:23:02.001Z,44.65
2018-10-16T08:24:02.009Z,44.69
2018-10-16T08:25:02.013Z,45.18
2018-10-16T08:26:02.017Z,44.64
2018-10-16T08:27:02.023Z,43.76
2018-10-16T08:28:02.030Z,44.05
2018-10-16T08:29:02.039Z,43.29
2018-10-16T08:30:02.228Z,43.12
2018-10-16T08:31:02.053Z,42.68
2018-10-16T08:32:02.069Z,41.83
2018-10-16T08:33:02.064Z,41.07
2018-10-16T08:34:02.099Z,40.70
2018-10-16T08:35:02.079Z,39.47
2018-10-16T08:36:02.177Z,38.60
2018-10-16T08:37:02.122Z,38.53
2018-10-16T08:38:02.131Z,37.56
2018-10-16T08:39:02.111Z,37.38
2018-10-16T08:40:02.118Z,36.68
2018-10-16T08:41:02.131Z,36.51
2018-10-16T08:42:02.260Z,36.21
2018-10-16T08:43:02.149Z,36.29
2018-10-16T08:44:02.158Z,35.89
2018-10-16T08:45:02.285Z,35.83
2018-10-16T08:46:02.248Z,35.47
2018-10-16T08:47:02.187Z,34.99
2018-10-16T08:48:02.189Z,33.98
2018-10-16T08:49:02.203Z,34.16
2018-10-16T08:50:02.214Z,34.25
2018-10-16T08:51:02.224Z,34.47
2018-10-16T08:52:02.233Z,34.28
2018-10-16T08:53:02.238Z,34.39
2018-10-16T08:54:02.250Z,34.25
2018-10-16T08:55:02.355Z,34.36
2018-10-16T08:56:02.271Z,34.75
2018-10-16T08:57:02.278Z,34.47
2018-10-16T08:58:02.288Z,34.18
2018-10-16T08:59:02.299Z,34.30
2018-10-16T09:00:02.308Z,34.10
2018-10-16T09:01:02.325Z,33.92
2018-10-16T09:02:02.335Z,34.00
2018-10-16T09:03:02.347Z,33.62
2018-10-16T09:04:02.356Z,33.26
2018-10-16T09:05:02.412Z,32.67
2018-10-16T09:06:02.372Z,32.67
2018-10-16T09:07:02.384Z,32.89
2018-10-16T09:08:02.393Z,32.39
2018-10-16T09:09:02.421Z,32.10
2018-10-16T09:10:02.422Z,32.20
2018-10-16T09:11:02.428Z,31.87
2018-10-16T09:12:02.442Z,32.10
2018-10-16T09:13:02.488Z,32.01
2018-10-16T09:14:02.540Z,31.60
2018-10-16T09:15:02.478Z,31.98
2018-10-16T09:16:02.489Z,31.98
2018-10-16T09:17:02.496Z,32.24
2018-10-16T09:18:02.508Z,32.46
2018-10-16T09:19:02.524Z,32.64
2018-10-16T09:20:02.529Z,32.57
2018-10-16T09:21:02.546Z,32.08
2018-10-16T09:22:02.558Z,32.67
2018-10-16T09:23:02.568Z,31.49
2018-10-16T09:24:02.580Z,31.84
2018-10-16T09:25:02.618Z,32.24
2018-10-16T09:26:02.603Z,31.95
2018-10-16T09:27:02.615Z,31.92
2018-10-16T09:28:02.626Z,32.43
2018-10-16T09:29:02.634Z,32.68
2018-10-16T09:30:02.651Z,32.79
2018-10-16T09:31:02.720Z,33.43
2018-10-16T09:32:02.669Z,32.97
2018-10-16T09:33:02.686Z,32.45
2018-10-16T09:34:02.699Z,32.36
2018-10-16T09:35:02.709Z,32.10
2018-10-16T09:36:02.721Z,31.79
2018-10-16T09:37:02.727Z,31.74
2018-10-16T09:38:02.854Z,32.12
2018-10-16T09:39:02.752Z,32.92
2018-10-16T09:40:02.762Z,32.46
2018-10-16T09:41:02.779Z,32.18
2018-10-16T09:42:02.791Z,31.72
2018-10-16T09:43:02.800Z,31.59
2018-10-16T09:44:02.810Z,31.62
2018-10-16T09:45:02.827Z,31.06
2018-10-16T09:46:02.839Z,30.72
2018-10-16T09:47:02.853Z,30.35
2018-10-16T09:48:02.864Z,30.19
2018-10-16T09:49:02.872Z,30.90
2018-10-16T09:50:02.886Z,31.66
2018-10-16T09:51:02.896Z,31.57
2018-10-16T09:52:02.908Z,31.81
2018-10-16T09:53:02.925Z,33.18
2018-10-16T09:54:02.937Z,33.22
2018-10-16T09:55:02.950Z,32.72
2018-10-16T09:56:02.961Z,32.46
2018-10-16T09:57:02.969Z,32.49
2018-10-16T09:58:02.982Z,31.73
2018-10-16T09:59:03.004Z,31.23
2018-10-16T10:00:03.011Z,30.93
2018-10-16T10:01:03.079Z,30.73
2018-10-16T10:02:03.032Z,31.24
2018-10-16T10:03:03.048Z,30.96
2018-10-16T10:04:03.057Z,31.07
2018-10-16T10:05:03.074Z,30.38
2018-10-16T10:06:03.085Z,30.38
2018-10-16T10:07:03.099Z,29.96
2018-10-16T10:08:03.113Z,30.32
2018-10-16T10:09:03.120Z,31.20
2018-10-16T10:10:03.141Z,30.93
2018-10-16T10:11:03.205Z,31.13
2018-10-16T10:12:03.156Z,30.98
2018-10-16T10:13:03.175Z,31.98
2018-10-16T10:14:03.187Z,31.72
2018-10-16T10:15:03.195Z,31.16
2018-10-16T10:16:03.208Z,30.58
2018-10-16T10:17:03.227Z,30.20
2018-10-16T10:18:03.238Z,30.00
2018-10-16T10:19:03.252Z,29.92
2018-10-16T10:20:03.263Z,29.23
2018-10-16T10:21:03.276Z,28.74
2018-10-16T10:22:03.286Z,29.05
2018-10-16T10:23:03.299Z,28.97
2018-10-16T10:24:03.310Z,29.35
2018-10-16T10:25:03.407Z,30.06
2018-10-16T10:26:03.343Z,30.07
2018-10-16T10:27:03.358Z,30.29
2018-10-16T10:28:03.368Z,29.72
2018-10-16T10:29:03.375Z,28.75
2018-10-16T10:30:03.390Z,28.35
2018-10-16T10:31:03.406Z,28.53
2018-10-16T10:32:03.419Z,28.52
2018-10-16T10:33:03.426Z,28.53
2018-10-16T10:34:03.439Z,28.62
2018-10-16T10:35:03.453Z,29.23
2018-10-16T10:36:03.465Z,28.61
2018-10-16T10:37:03.484Z,29.69
2018-10-16T10:38:03.498Z,29.97
2018-10-16T10:39:03.509Z,29.39
2018-10-16T10:40:03.524Z,29.24
2018-10-16T10:41:03.528Z,30.72
2018-10-16T10:42:03.547Z,31.03
2018-10-16T10:43:03.552Z,31.34
2018-10-16T10:44:03.565Z,30.35
2018-10-16T10:45:03.581Z,30.15
2018-10-16T10:46:03.593Z,30.37
2018-10-16T10:47:03.601Z,29.86
2018-10-16T10:48:03.613Z,30.13
2018-10-16T10:49:03.628Z,30.43
2018-10-16T10:50:03.849Z,30.62
2018-10-16T10:51:03.838Z,30.75
2018-10-16T10:52:03.664Z,30.58
2018-10-16T10:53:03.675Z,30.11
2018-10-16T10:54:03.683Z,29.25
2018-10-16T10:55:03.694Z,28.58
2018-10-16T10:56:03.706Z,28.59
2018-10-16T10:57:03.961Z,28.31
2018-10-16T10:58:03.733Z,26.91
2018-10-16T10:59:03.747Z,27.83
2018-10-16T11:00:03.758Z,28.31
2018-10-16T11:01:03.765Z,28.61
2018-10-16T11:02:03.781Z,29.61
2018-10-16T11:03:03.820Z,29.32
2018-10-16T11:04:03.806Z,29.23
2018-10-16T11:05:03.816Z,28.74
2018-10-16T11:06:03.831Z,28.44
2018-10-16T11:07:03.839Z,28.14
2018-10-16T11:08:03.852Z,28.51
2018-10-16T11:09:03.947Z,29.30
2018-10-16T11:10:03.881Z,29.20
2018-10-16T11:11:03.893Z,30.16
2018-10-16T11:12:03.905Z,30.82
2018-10-16T11:13:03.912Z,31.87
2018-10-16T11:14:03.924Z,31.74
2018-10-16T11:15:03.954Z,32.71
2018-10-16T11:16:03.947Z,32.97
2018-10-16T11:17:03.964Z,33.59
2018-10-16T11:18:03.975Z,34.36
2018-10-16T11:19:03.981Z,35.42
2018-10-16T11:20:03.992Z,36.38
2018-10-16T11:21:04.042Z,37.32
2018-10-16T11:22:04.016Z,37.32
2018-10-16T11:23:04.027Z,38.59
2018-10-16T11:24:04.036Z,39.28
2018-10-16T11:25:04.043Z,39.36
2018-10-16T11:26:04.047Z,38.77
2018-10-16T11:27:04.101Z,39.14
2018-10-16T11:28:04.062Z,39.92
2018-10-16T11:29:04.075Z,40.21
2018-10-16T11:30:04.087Z,40.11
2018-10-16T11:31:04.091Z,40.50
2018-10-16T11:32:04.097Z,40.31
2018-10-16T11:33:04.136Z,40.09
2018-10-16T11:34:04.106Z,40.58
2018-10-16T11:35:04.119Z,40.39
2018-10-16T11:36:04.123Z,40.29
2018-10-16T11:37:04.180Z,40.88
2018-10-16T11:38:04.132Z,41.07
2018-10-16T11:39:04.150Z,41.36
2018-10-16T11:40:04.143Z,40.97
2018-10-16T11:41:04.154Z,40.58
2018-10-16T11:42:04.162Z,40.78
2018-10-16T11:43:04.166Z,41.15
2018-10-16T11:44:04.170Z,41.30
2018-10-16T11:45:04.255Z,42.06
2018-10-16T11:46:04.178Z,42.91
2018-10-16T11:47:04.183Z,43.30
2018-10-16T11:48:04.188Z,43.71
2018-10-16T11:49:04.198Z,43.70
2018-10-16T11:50:04.284Z,43.70
2018-10-16T11:51:04.203Z,44.09
2018-10-16T11:52:04.269Z,45.15
2018-10-16T11:53:04.222Z,44.76
2018-10-16T11:54:04.222Z,44.94
2018-10-16T11:55:04.228Z,44.53
2018-10-16T11:56:04.307Z,44.92
2018-10-16T11:57:04.229Z,45.65
2018-10-16T11:58:04.233Z,46.42
2018-10-16T11:59:04.300Z,46.89
2018-10-16T12:00:04.242Z,46.89
2018-10-16T12:01:04.256Z,46.89
2018-10-16T12:02:04.345Z,46.79
2018-10-16T12:03:04.259Z,46.98
2018-10-16T12:04:04.262Z,46.98
2018-10-16T12:05:04.262Z,47.40
2018-10-16T12:06:04.281Z,47.20
2018-10-16T12:07:04.307Z,47.59
2018-10-16T12:08:04.302Z,47.11
2018-10-16T12:09:04.275Z,47.40
2018-10-16T12:10:04.280Z,47.03
2018-10-16T12:11:04.309Z,48.10
2018-10-16T12:12:04.285Z,48.10
2018-10-16T12:13:04.324Z,47.74
2018-10-16T12:14:04.397Z,46.64
2018-10-16T12:15:04.301Z,46.15
2018-10-16T12:16:04.304Z,46.55
2018-10-16T12:17:04.301Z,46.45
2018-10-16T12:18:04.306Z,45.87
2018-10-16T12:19:04.341Z,46.25
2018-10-16T12:20:04.457Z,46.45
2018-10-16T12:21:04.348Z,46.84
2018-10-16T12:22:04.323Z,46.45
2018-10-16T12:23:04.320Z,46.25
2018-10-16T12:24:04.388Z,46.37
2018-10-16T12:25:04.357Z,46.37
2018-10-16T12:26:04.334Z,46.28
2018-10-16T12:27:04.343Z,46.28
2018-10-16T12:28:04.340Z,46.47
2018-10-16T12:29:04.381Z,44.62
2018-10-16T12:30:04.345Z,43.46
2018-10-16T12:31:04.426Z,43.55
2018-10-16T12:32:04.402Z,43.46
2018-10-16T12:33:04.460Z,43.36
2018-10-16T12:34:04.358Z,43.65
2018-10-16T12:35:04.361Z,43.67
2018-10-16T12:36:04.363Z,43.16
2018-10-16T12:37:04.402Z,42.39
2018-10-16T12:38:04.364Z,41.90
2018-10-16T12:39:04.403Z,42.58
2018-10-16T12:40:04.433Z,42.68
2018-10-16T12:41:04.384Z,42.87
2018-10-16T12:42:04.397Z,42.97
2018-10-16T12:43:04.459Z,43.26
2018-10-16T12:44:04.381Z,43.07
2018-10-16T12:45:04.425Z,42.49
2018-10-16T12:46:04.452Z,42.78
2018-10-16T12:47:04.466Z,42.97
2018-10-16T12:48:04.412Z,42.66
2018-10-16T12:49:04.395Z,42.46
2018-10-16T12:50:04.434Z,42.83
2018-10-16T12:51:04.409Z,43.41
2018-10-16T12:52:04.402Z,44.00